Time,TemperatureF,DewpointF,PressureIn,WindDirection,WindDirectionDegrees,WindSpeedMPH,WindSpeedGustMPH,Humidity,HourlyPrecipIn,Conditions,Clouds,dailyrainin,SoftwareType,DateUTC
2014-04-13 00:22:00,42.0,31.0,29.18,SSW,192,2.0,5.0,66,0.00,,,0.00,,2014-04-13 06:22:00,
2014-04-13 00:52:00,41.0,32.0,29.16,SSE,160,7.0,12.0,69,0.00,,,0.00,,2014-04-13 06:52:00,
2014-04-13 01:23:00,39.0,32.0,29.16,SSE,160,10.0,13.0,75,0.00,,,0.00,,2014-04-13 07:23:00,
2014-04-13 01:52:00,40.0,33.0,29.23,WNW,299,8.0,24.0,75,0.01,,,0.01,,2014-04-13 07:52:00,
2014-04-13 02:22:00,35.0,30.0,29.30,NW,304,2.0,7.0,81,0.03,,,0.03,,2014-04-13 08:22:00,
2014-04-13 02:52:00,35.0,30.0,29.26,West,277,0.0,2.0,83,0.03,,,0.04,,2014-04-13 08:52:00,
2014-04-13 03:22:00,34.0,30.0,29.27,ENE,78,1.0,3.0,85,0.01,,,0.04,,2014-04-13 09:22:00,
2014-04-13 03:54:00,34.0,30.0,29.27,SE,125,4.0,7.0,86,0.00,,,0.04,,2014-04-13 09:54:00,
2014-04-13 04:23:00,35.0,31.0,29.25,ESE,109,0.0,2.0,86,0.02,,,0.06,,2014-04-13 10:23:00,
2014-04-13 04:54:00,34.0,30.0,29.26,ESE,109,0.0,0.0,86,0.02,,,0.06,,2014-04-13 10:54:00,
2014-04-13 05:22:00,34.0,31.0,29.28,SSE,162,0.0,1.0,87,0.00,,,0.06,,2014-04-13 11:22:00,
2014-04-13 05:52:00,34.0,31.0,29.27,WNW,294,2.0,6.0,87,0.00,,,0.06,,2014-04-13 11:52:00,
2014-04-13 06:22:00,34.0,30.0,29.30,NW,311,4.0,6.0,86,0.00,,,0.06,,2014-04-13 12:22:00,
2014-04-13 06:52:00,35.0,31.0,29.28,WSW,250,5.0,13.0,85,0.00,,,0.06,,2014-04-13 12:52:00,
2014-04-13 07:22:00,35.0,27.0,29.31,WSW,243,5.0,10.0,71,0.00,,,0.06,,2014-04-13 13:22:00,
2014-04-13 07:52:00,35.0,24.0,29.33,West,270,4.0,12.0,64,0.00,,,0.06,,2014-04-13 13:52:00,
2014-04-13 08:22:00,36.0,25.0,29.37,WNW,288,6.0,12.0,63,0.00,,,0.06,,2014-04-13 14:22:00,
2014-04-13 08:52:00,37.0,24.0,29.37,WSW,237,6.0,12.0,60,0.00,,,0.06,,2014-04-13 14:52:00,
2014-04-13 09:22:00,37.0,23.0,29.39,WSW,246,10.0,20.0,57,0.00,,,0.06,,2014-04-13 15:22:00,
2014-04-13 09:54:00,37.0,24.0,29.39,WSW,251,10.0,20.0,60,0.00,,,0.06,,2014-04-13 15:54:00,
2014-04-13 10:23:00,37.0,23.0,29.41,NW,314,6.0,13.0,57,0.00,,,0.06,,2014-04-13 16:23:00,
2014-04-13 10:53:00,38.0,25.0,29.42,SW,230,9.0,20.0,59,0.00,,,0.06,,2014-04-13 16:53:00,
2014-04-13 11:22:00,39.0,25.0,29.43,WSW,244,14.0,22.0,58,0.00,,,0.06,,2014-04-13 17:22:00,
2014-04-13 11:53:00,38.0,26.0,29.43,West,271,11.0,20.0,61,0.00,,,0.06,,2014-04-13 17:53:00,
2014-04-13 12:22:00,37.0,28.0,29.47,West,264,7.0,16.0,70,0.00,,,0.06,,2014-04-13 18:22:00,
2014-04-13 12:52:00,38.0,27.0,29.48,West,268,6.0,17.0,64,0.00,,,0.06,,2014-04-13 18:52:00,
2014-04-13 13:21:00,33.0,28.0,29.56,West,274,6.0,13.0,80,0.00,,,0.06,,2014-04-13 19:21:00,
2014-04-13 13:52:00,35.0,29.0,29.55,West,264,7.0,16.0,80,0.00,,,0.06,,2014-04-13 19:52:00,
2014-04-13 14:21:00,36.0,29.0,29.56,WSW,251,10.0,20.0,77,0.01,,,0.07,,2014-04-13 20:21:00,
2014-04-13 14:52:00,38.0,29.0,29.55,WSW,250,9.0,21.0,71,0.01,,,0.07,,2014-04-13 20:52:00,
2014-04-13 15:21:00,37.0,26.0,29.57,WSW,257,11.0,20.0,64,0.00,,,0.07,,2014-04-13 21:21:00,
2014-04-13 15:54:00,36.0,25.0,29.58,WSW,244,11.0,20.0,63,0.00,,,0.07,,2014-04-13 21:54:00,
2014-04-13 16:22:00,38.0,24.0,29.60,NNW,329,12.0,20.0,56,0.00,,,0.07,,2014-04-13 22:22:00,
2014-04-13 16:53:00,39.0,20.0,29.60,West,268,7.0,12.0,46,0.00,,,0.07,,2014-04-13 22:53:00,
2014-04-13 17:22:00,37.0,20.0,29.64,North,0,11.0,24.0,49,0.00,,,0.07,,2014-04-13 23:22:00,
2014-04-13 17:53:00,37.0,21.0,29.65,NW,320,7.0,25.0,51,0.00,,,0.07,,2014-04-13 23:53:00,
2014-04-13 18:22:00,38.0,18.0,29.62,NW,316,6.0,12.0,44,0.00,,,0.07,,2014-04-14 00:22:00,
2014-04-13 18:52:00,37.0,17.0,29.65,NW,311,7.0,30.0,44,0.00,,,0.07,,2014-04-14 00:52:00,
2014-04-13 19:22:00,38.0,15.0,29.64,West,262,9.0,18.0,39,0.00,,,0.07,,2014-04-14 01:22:00,
2014-04-13 19:52:00,37.0,15.0,29.67,West,271,5.0,13.0,40,0.00,,,0.07,,2014-04-14 01:52:00,
2014-04-13 20:21:00,37.0,14.0,29.67,West,260,7.0,14.0,38,0.00,,,0.07,,2014-04-14 02:21:00,
2014-04-13 20:52:00,37.0,13.0,29.69,West,281,5.0,13.0,37,0.00,,,0.07,,2014-04-14 02:52:00,
2014-04-13 21:22:00,37.0,13.0,29.71,NW,313,4.0,12.0,37,0.00,,,0.07,,2014-04-14 03:22:00,
2014-04-13 22:54:00,35.0,14.0,29.76,NW,322,5.0,8.0,42,0.00,,,0.07,,2014-04-14 04:54:00,
2014-04-13 23:21:00,34.0,19.0,29.80,WNW,289,1.0,6.0,53,0.00,,,0.07,,2014-04-14 05:21:00,
2014-04-13 23:52:00,32.0,22.0,29.83,SSE,162,1.0,3.0,66,0.00,,,0.07,,2014-04-14 05:52:00,